createdAt,value
2023-01-17T17:02:01.512Z,154.50
2023-01-17T17:03:33.917Z,161.25
2023-01-17T17:05:07.749Z,151.75
2023-01-17T17:06:39.905Z,149.50
2023-01-17T17:08:11.819Z,149.25
2023-01-17T17:09:43.858Z,145.75
2023-01-17T17:11:20.579Z,146.75
2023-01-17T17:12:52.570Z,164.00
2023-01-17T17:14:24.684Z,148.00
2023-01-17T17:15:56.641Z,153.00
2023-01-17T17:17:29.430Z,140.25
2023-01-17T17:19:04.304Z,127.75
2023-01-17T17:20:36.329Z,132.00
2023-01-17T17:22:08.519Z,121.40
2023-01-17T17:23:40.402Z,106.40
2023-01-17T17:25:12.720Z,113.60
2023-01-17T17:26:44.617Z,105.20
2023-01-17T17:28:17.070Z,93.50
2023-01-17T17:29:49.269Z,102.50
2023-01-17T17:31:21.275Z,100.60
2023-01-17T17:32:53.156Z,116.80
2023-01-17T17:34:27.814Z,108.40
2023-01-17T17:36:10.377Z,107.80
2023-01-17T17:37:42.591Z,123.25
2023-01-17T17:39:17.713Z,131.75
2023-01-17T17:40:49.678Z,139.25
2023-01-17T17:42:21.509Z,129.75
2023-01-17T17:43:54.067Z,130.75
2023-01-17T17:45:26.078Z,134.25
2023-01-17T17:46:57.992Z,140.25
2023-01-17T17:48:29.848Z,144.75
2023-01-17T17:50:01.829Z,143.50
2023-01-17T17:51:35.648Z,161.75
2023-01-17T17:53:08.786Z,168.75
2023-01-17T17:54:40.911Z,169.25
2023-01-17T17:56:13.147Z,180.50
2023-01-17T17:57:45.915Z,172.75
2023-01-17T17:59:19.604Z,170.50
2023-01-17T18:00:51.437Z,178.25
2023-01-17T18:02:23.450Z,174.75
2023-01-17T18:03:57.280Z,196.50
2023-01-17T18:05:30.165Z,201.00
2023-01-17T18:07:02.340Z,183.00
2023-01-17T18:08:35.100Z,220.33
2023-01-17T18:10:07.793Z,201.67
2023-01-17T18:11:41.017Z,207.67
2023-01-17T18:13:12.874Z,233.33
2023-01-17T18:14:44.780Z,222.00
2023-01-17T18:16:27.467Z,231.33
2023-01-17T18:17:59.520Z,232.67
2023-01-17T18:19:31.594Z,225.67
2023-01-17T18:21:13.834Z,226.00
2023-01-17T18:22:45.842Z,211.67
2023-01-17T18:24:19.424Z,230.00
2023-01-17T18:25:51.251Z,251.67
2023-01-17T18:27:23.167Z,233.33
2023-01-17T18:28:55.787Z,248.67
2023-01-17T18:30:27.990Z,239.33
2023-01-17T18:31:59.962Z,222.33
2023-01-17T18:33:31.976Z,241.00
2023-01-17T18:35:04.165Z,207.67
2023-01-17T18:36:36.488Z,225.33
2023-01-17T18:38:08.451Z,221.00
2023-01-17T18:39:40.402Z,219.67
2023-01-17T18:41:14.282Z,217.00
2023-01-17T18:42:48.678Z,215.33
2023-01-17T18:44:22.229Z,222.67
2023-01-17T18:45:54.455Z,208.00
2023-01-17T18:47:26.311Z,211.67
2023-01-17T18:48:58.405Z,175.75
2023-01-17T18:50:30.287Z,203.00
2023-01-17T18:52:02.430Z,198.00
2023-01-17T18:53:35.097Z,185.00
2023-01-17T18:55:07.314Z,203.50
2023-01-17T18:56:39.267Z,194.50
2023-01-17T18:58:11.184Z,185.50
2023-01-17T18:59:44.468Z,180.50
2023-01-17T19:01:17.596Z,177.50
2023-01-17T19:02:49.593Z,189.00
2023-01-17T19:04:21.724Z,177.50
2023-01-17T19:05:53.588Z,177.25
2023-01-17T19:07:29.257Z,161.75
2023-01-17T19:09:01.273Z,170.00
2023-01-17T19:10:33.606Z,153.25
2023-01-17T19:12:05.663Z,209.67
2023-01-17T19:13:38.336Z,263.50
2023-01-17T19:15:10.451Z,343.50
2023-01-17T19:16:42.618Z,276.25
2023-01-17T19:18:14.535Z,258.67
2023-01-17T19:19:46.729Z,212.33
2023-01-17T19:21:20.403Z,210.00
2023-01-17T19:22:52.861Z,216.33
2023-01-17T19:24:24.782Z,201.75
2023-01-17T19:25:56.726Z,208.33
2023-01-17T19:27:28.618Z,208.75
2023-01-17T19:29:00.586Z,209.33
2023-01-17T19:30:34.539Z,214.33
2023-01-17T19:32:07.509Z,188.25
2023-01-17T19:33:40.150Z,196.25
2023-01-17T19:35:14.014Z,189.75
2023-01-17T19:36:45.987Z,198.33
2023-01-17T19:38:17.900Z,206.75
2023-01-17T19:39:49.822Z,193.00
2023-01-17T19:41:26.773Z,186.25
2023-01-17T19:42:59.363Z,206.50
2023-01-17T19:44:31.927Z,203.75
2023-01-17T19:46:03.959Z,181.25
2023-01-17T19:47:36.546Z,193.50
2023-01-17T19:49:08.739Z,194.75
2023-01-17T19:50:40.643Z,190.75
2023-01-17T19:52:13.207Z,178.00
2023-01-17T19:53:45.121Z,179.25
2023-01-17T19:55:17.899Z,170.00
2023-01-17T19:56:49.742Z,153.00
2023-01-17T19:58:21.602Z,167.25
2023-01-17T19:59:54.168Z,167.25
2023-01-17T20:01:28.830Z,156.25
2023-01-17T20:03:00.777Z,156.00
2023-01-17T20:04:32.727Z,143.25
2023-01-17T20:06:08.229Z,145.00
2023-01-17T20:07:40.213Z,139.25
2023-01-17T20:09:12.174Z,138.75
2023-01-17T20:10:44.045Z,125.75
2023-01-17T20:12:16.477Z,138.25
2023-01-17T20:13:49.208Z,135.25
2023-01-17T20:15:23.090Z,145.75
2023-01-17T20:16:55.348Z,143.25
2023-01-17T20:18:27.353Z,144.75
2023-01-17T20:19:59.225Z,136.50
2023-01-17T20:21:31.255Z,142.00
2023-01-17T20:23:05.736Z,148.25
2023-01-17T20:24:37.642Z,151.50
2023-01-17T20:26:13.499Z,202.00
2023-01-17T20:27:45.894Z,175.25
2023-01-17T20:29:18.128Z,177.00
2023-01-17T20:30:49.901Z,157.75
2023-01-17T20:32:21.890Z,180.75
2023-01-17T20:33:54.719Z,165.50
2023-01-17T20:35:28.826Z,166.00
2023-01-17T20:37:00.687Z,153.75
2023-01-17T20:38:45.080Z,167.75
2023-01-17T20:40:17.678Z,168.00
2023-01-17T20:41:51.570Z,171.75
2023-01-17T20:43:23.477Z,171.00
2023-01-17T20:44:55.280Z,163.00
2023-01-17T20:46:29.053Z,178.00
2023-01-17T20:48:01.091Z,174.00
2023-01-17T20:49:33.036Z,165.00
2023-01-17T20:51:10.755Z,162.50
2023-01-17T20:52:42.601Z,147.50
2023-01-17T20:54:18.077Z,173.50
2023-01-17T20:55:56.378Z,173.00
2023-01-17T20:57:28.361Z,177.00
2023-01-17T20:59:12.522Z,160.00
2023-01-17T21:00:44.521Z,163.25
2023-01-17T21:02:16.557Z,163.75
2023-01-17T21:03:51.229Z,160.00
2023-01-17T21:05:23.086Z,159.50
2023-01-17T21:06:55.424Z,149.75
2023-01-17T21:08:28.544Z,148.75
2023-01-17T21:10:00.456Z,144.25
2023-01-17T21:11:34.137Z,143.50
2023-01-17T21:13:05.985Z,159.50
2023-01-17T21:14:38.704Z,148.50
2023-01-17T21:16:14.488Z,133.25
2023-01-17T21:17:46.350Z,144.25
2023-01-17T21:19:18.321Z,158.00
2023-01-17T21:20:50.237Z,145.00
2023-01-17T21:22:22.229Z,167.25
2023-01-17T21:23:55.336Z,149.00
2023-01-17T21:25:27.186Z,150.00
2023-01-17T21:26:59.125Z,171.00
2023-01-17T21:28:32.955Z,165.25
2023-01-17T21:30:05.255Z,152.00
2023-01-17T21:31:39.746Z,155.00
2023-01-17T21:33:13.187Z,155.00
2023-01-17T21:34:45.105Z,156.75
2023-01-17T21:36:17.675Z,143.25
2023-01-17T21:37:49.888Z,142.25
2023-01-17T21:39:21.765Z,158.00
2023-01-17T21:40:53.661Z,149.50
2023-01-17T21:42:25.510Z,143.25
2023-01-17T21:43:59.125Z,144.75
2023-01-17T21:45:32.211Z,152.75
2023-01-17T21:47:04.155Z,160.00
2023-01-17T21:48:35.968Z,164.25
2023-01-17T21:50:09.506Z,181.50
2023-01-17T21:51:54.349Z,145.25
2023-01-17T21:53:27.893Z,160.50
2023-01-17T21:55:18.455Z,150.75
2023-01-17T21:57:09.244Z,147.50
2023-01-17T21:58:44.295Z,141.50
2023-01-17T22:00:16.693Z,150.50
2023-01-17T22:01:48.690Z,143.00
2023-01-17T22:03:20.621Z,146.00
2023-01-17T22:04:54.640Z,153.75
2023-01-17T22:06:29.191Z,156.00
2023-01-17T22:08:14.454Z,156.25
2023-01-17T22:09:46.367Z,157.50
2023-01-17T22:11:20.003Z,162.00
2023-01-17T22:12:52.398Z,163.00
2023-01-17T22:14:24.307Z,141.00
2023-01-17T22:16:00.190Z,149.00
2023-01-17T22:17:32.141Z,148.00
2023-01-17T22:19:04.858Z,142.25
2023-01-17T22:20:41.461Z,140.50
2023-01-17T22:22:13.438Z,125.75
2023-01-17T22:23:58.707Z,145.75
2023-01-17T22:25:30.935Z,133.50
2023-01-17T22:27:02.948Z,142.50
2023-01-17T22:28:34.878Z,132.75
2023-01-17T22:30:13.000Z,139.00
2023-01-17T22:31:45.596Z,125.75
2023-01-17T22:33:17.584Z,145.00
2023-01-17T22:34:49.404Z,111.75
2023-01-17T22:36:21.430Z,134.50
2023-01-17T22:37:54.151Z,130.00
2023-01-17T22:39:26.051Z,103.80
2023-01-17T22:41:25.445Z,124.80
2023-01-17T22:42:57.664Z,121.00
2023-01-17T22:44:29.819Z,124.20
2023-01-17T22:46:01.650Z,111.40
2023-01-17T22:47:34.428Z,115.60
2023-01-17T22:49:08.554Z,113.20
2023-01-17T22:50:40.457Z,97.25
2023-01-17T22:52:12.284Z,113.00
2023-01-17T22:53:48.538Z,107.40
2023-01-17T22:55:21.727Z,89.25
2023-01-17T22:56:54.279Z,102.00
2023-01-17T22:58:28.745Z,89.75
2023-01-17T23:00:00.707Z,98.75
2023-01-17T23:01:32.942Z,92.50
2023-01-17T23:03:06.431Z,91.75
2023-01-17T23:04:38.464Z,102.00
2023-01-17T23:06:14.900Z,89.25
2023-01-17T23:07:49.749Z,94.00
2023-01-17T23:09:21.753Z,83.25
2023-01-17T23:11:12.208Z,79.00
2023-01-17T23:12:44.081Z,81.00
2023-01-17T23:14:16.823Z,76.33
2023-01-17T23:16:07.163Z,81.50
2023-01-17T23:17:57.428Z,74.50
2023-01-17T23:19:32.316Z,77.25
2023-01-17T23:21:04.258Z,77.50
2023-01-17T23:22:36.230Z,84.00
2023-01-17T23:24:08.143Z,75.00
2023-01-17T23:25:40.160Z,77.25
2023-01-17T23:27:34.027Z,73.00
2023-01-17T23:29:05.965Z,75.75
2023-01-17T23:30:39.540Z,72.50
2023-01-17T23:32:11.436Z,74.50
2023-01-17T23:33:43.273Z,61.50
